createdAt,value
2019-02-12T00:00:04.842Z,80.69
2019-02-12T00:02:38.712Z,80.63
2019-02-12T00:05:12.632Z,80.51
2019-02-12T00:07:43.680Z,80.47
2019-02-12T00:10:14.020Z,80.59
2019-02-12T00:12:44.798Z,80.74
2019-02-12T00:15:15.080Z,81.13
2019-02-12T00:17:45.744Z,81.26
2019-02-12T00:20:16.369Z,81.64
2019-02-12T00:22:48.997Z,81.72
2019-02-12T00:25:19.308Z,81.90
2019-02-12T00:27:53.651Z,82.21
2019-02-12T00:30:24.353Z,82.46
2019-02-12T00:32:54.833Z,82.53
2019-02-12T00:35:25.110Z,82.79
2019-02-12T00:38:00.815Z,82.88
2019-02-12T00:40:31.449Z,83.04
2019-02-12T00:43:02.854Z,83.16
2019-02-12T00:45:33.471Z,83.26
2019-02-12T00:48:03.781Z,83.23
2019-02-12T00:50:38.131Z,83.20
2019-02-12T00:53:11.128Z,83.15
2019-02-12T00:55:41.979Z,83.11
2019-02-12T00:58:12.396Z,83.00
2019-02-12T01:00:43.016Z,82.95
2019-02-12T01:03:13.379Z,83.15
2019-02-12T01:05:45.073Z,83.06
2019-02-12T01:08:15.670Z,83.32
2019-02-12T01:10:46.234Z,83.37
2019-02-12T01:13:16.553Z,83.43
2019-02-12T01:15:49.178Z,83.43
2019-02-12T01:18:21.449Z,83.47
2019-02-12T01:20:58.300Z,83.41
2019-02-12T01:23:30.258Z,83.53
2019-02-12T01:26:00.994Z,83.66
2019-02-12T01:28:31.334Z,83.68
2019-02-12T01:31:01.682Z,83.65
2019-02-12T01:33:32.108Z,83.74
2019-02-12T01:36:03.470Z,83.83
2019-02-12T01:38:39.708Z,83.92
2019-02-12T01:41:12.867Z,84.22
2019-02-12T01:43:43.148Z,84.22
2019-02-12T01:46:13.427Z,84.28
2019-02-12T01:48:43.827Z,84.27
2019-02-12T01:51:15.594Z,84.36
2019-02-12T01:54:05.379Z,84.46
2019-02-12T01:56:38.551Z,84.40
2019-02-12T01:59:08.837Z,84.53
2019-02-12T02:01:39.753Z,84.73
2019-02-12T02:04:10.106Z,84.73
2019-02-12T02:06:42.084Z,84.76
2019-02-12T02:09:12.904Z,84.80
2019-02-12T02:11:48.275Z,84.79
2019-02-12T02:14:19.647Z,84.82
2019-02-12T02:16:52.001Z,84.76
2019-02-12T02:19:22.891Z,84.79
2019-02-12T02:21:53.179Z,84.72
2019-02-12T02:24:23.491Z,84.72
2019-02-12T02:26:54.144Z,84.62
2019-02-12T02:29:25.486Z,84.54
2019-02-12T02:32:00.667Z,84.50
2019-02-12T02:34:31.085Z,84.38
2019-02-12T02:37:01.677Z,84.32
2019-02-12T02:39:33.136Z,84.25
2019-02-12T02:42:04.097Z,84.19
2019-02-12T02:44:35.550Z,84.18
2019-02-12T02:47:06.139Z,84.26
2019-02-12T02:49:36.473Z,84.19
2019-02-12T02:52:07.037Z,84.29
2019-02-12T02:54:38.622Z,84.35
2019-02-12T02:57:09.152Z,84.58
2019-02-12T02:59:39.414Z,84.72
2019-02-12T03:02:10.056Z,84.76
2019-02-12T03:04:40.448Z,84.77
2019-02-12T03:07:11.289Z,84.79
2019-02-12T03:09:44.457Z,84.76
2019-02-12T03:12:16.512Z,84.76
2019-02-12T03:14:46.875Z,84.68
2019-02-12T03:17:17.163Z,84.54
2019-02-12T03:19:49.259Z,84.48
2019-02-12T03:22:23.820Z,84.51
2019-02-12T03:24:56.352Z,84.56
2019-02-12T03:27:26.636Z,84.70
2019-02-12T03:29:57.069Z,84.80
2019-02-12T03:32:27.571Z,84.76
2019-02-12T03:34:57.848Z,84.60
2019-02-12T03:37:28.301Z,84.55
2019-02-12T03:39:58.887Z,84.61
2019-02-12T03:42:29.198Z,84.57
2019-02-12T03:44:59.719Z,84.69
2019-02-12T03:47:31.640Z,84.69
2019-02-12T03:50:02.220Z,84.79
2019-02-12T03:52:32.494Z,84.82
2019-02-12T03:55:04.544Z,84.75
2019-02-12T03:57:34.843Z,84.84
2019-02-12T04:00:07.462Z,84.86
2019-02-12T04:02:43.081Z,84.85
2019-02-12T04:05:15.075Z,84.91
2019-02-12T04:07:45.379Z,84.93
2019-02-12T04:10:16.335Z,85.08
2019-02-12T04:12:49.742Z,85.11
2019-02-12T04:15:20.860Z,85.07
2019-02-12T04:17:51.388Z,85.03
2019-02-12T04:20:24.631Z,85.13
2019-02-12T04:22:54.914Z,85.11
2019-02-12T04:25:29.042Z,85.07
2019-02-12T04:27:59.617Z,85.07
2019-02-12T04:30:30.254Z,85.07
2019-02-12T04:33:00.731Z,85.16
2019-02-12T04:35:32.398Z,85.43
2019-02-12T04:38:06.882Z,85.43
2019-02-12T04:40:38.627Z,85.29
2019-02-12T04:43:09.285Z,85.30
2019-02-12T04:45:41.982Z,85.37
2019-02-12T04:48:12.241Z,85.39
2019-02-12T04:50:44.219Z,85.47
2019-02-12T04:53:14.695Z,85.40
2019-02-12T04:55:52.288Z,85.52
2019-02-12T04:58:24.223Z,85.49
2019-02-12T05:00:54.581Z,85.56
2019-02-12T05:03:26.115Z,85.58
2019-02-12T05:05:58.417Z,85.60
2019-02-12T05:08:40.866Z,85.61
2019-02-12T05:11:15.618Z,85.69
2019-02-12T05:13:47.976Z,85.71
2019-02-12T05:16:19.717Z,85.78
2019-02-12T05:18:50.212Z,85.78
2019-02-12T05:21:20.529Z,85.83
2019-02-12T05:23:53.559Z,85.79
2019-02-12T05:26:25.702Z,85.78
2019-02-12T05:28:56.013Z,85.83
2019-02-12T05:31:27.647Z,85.83
2019-02-12T05:33:58.030Z,85.94
2019-02-12T05:36:28.339Z,85.96
2019-02-12T05:38:58.862Z,85.96
2019-02-12T05:41:30.404Z,85.98
2019-02-12T05:44:03.084Z,85.98
2019-02-12T05:46:37.788Z,85.97
2019-02-12T05:49:14.584Z,86.02
2019-02-12T05:51:43.509Z,86.04
2019-02-12T05:54:14.165Z,86.04
2019-02-12T05:56:47.727Z,86.05
2019-02-12T05:59:18.392Z,86.09
2019-02-12T06:01:52.690Z,86.22
2019-02-12T06:04:23.002Z,86.22
2019-02-12T06:06:53.800Z,86.12
2019-02-12T06:09:24.097Z,86.10
2019-02-12T06:11:55.819Z,86.14
2019-02-12T06:14:28.050Z,86.15
2019-02-12T06:17:01.059Z,86.17
2019-02-12T06:19:31.679Z,86.19
2019-02-12T06:22:03.323Z,86.15
2019-02-12T06:24:35.024Z,86.17
2019-02-12T06:27:05.490Z,86.21
2019-02-12T06:29:36.121Z,86.23
2019-02-12T06:32:06.473Z,86.23
2019-02-12T06:34:36.863Z,86.21
2019-02-12T06:37:07.179Z,86.17
2019-02-12T06:39:39.223Z,86.21
2019-02-12T06:42:09.526Z,86.24
2019-02-12T06:44:40.153Z,86.29
2019-02-12T06:47:10.907Z,86.30
2019-02-12T06:49:41.286Z,86.28
2019-02-12T06:52:11.610Z,86.30
2019-02-12T06:54:43.874Z,86.36
2019-02-12T06:57:14.264Z,86.37
2019-02-12T06:59:44.648Z,86.39
2019-02-12T07:02:52.374Z,86.37
2019-02-12T07:05:22.735Z,86.37
2019-02-12T07:08:29.745Z,86.36
2019-02-12T07:11:04.751Z,86.37
2019-02-12T07:13:40.659Z,86.35
2019-02-12T07:16:27.926Z,86.36
2019-02-12T07:19:47.667Z,86.30
2019-02-12T07:23:05.291Z,86.32
2019-02-12T07:26:09.308Z,86.38
2019-02-12T07:29:09.111Z,86.39
2019-02-12T07:32:26.941Z,86.42
2019-02-12T07:35:19.856Z,86.35
2019-02-12T07:38:32.042Z,86.32
2019-02-12T07:41:38.742Z,86.21
2019-02-12T07:44:44.045Z,86.15
2019-02-12T07:47:45.769Z,86.02
2019-02-12T07:50:49.122Z,85.91
2019-02-12T07:53:53.864Z,85.66
2019-02-12T07:57:03.885Z,85.54
2019-02-12T07:59:56.562Z,85.16
2019-02-12T08:03:04.027Z,85.01
2019-02-12T08:06:12.458Z,84.98
2019-02-12T08:09:42.750Z,84.62
2019-02-12T08:12:34.747Z,84.22
2019-02-12T08:15:12.218Z,83.99
2019-02-12T08:18:21.441Z,83.74
2019-02-12T08:21:29.474Z,83.51
2019-02-12T08:24:30.341Z,82.49
2019-02-12T08:27:27.464Z,82.49
2019-02-12T08:30:38.833Z,82.19
2019-02-12T08:33:47.595Z,81.41
2019-02-12T08:37:15.744Z,80.56
2019-02-12T08:40:15.690Z,80.39
2019-02-12T08:43:16.348Z,80.55
2019-02-12T08:46:36.557Z,80.05
2019-02-12T08:49:32.330Z,78.66
2019-02-12T08:52:51.280Z,77.05
2019-02-12T08:55:50.132Z,77.06
2019-02-12T08:58:50.224Z,75.54
2019-02-12T09:02:10.560Z,75.08
2019-02-12T09:05:25.115Z,75.90
2019-02-12T09:08:27.899Z,75.16
2019-02-12T09:11:39.722Z,74.65
2019-02-12T09:14:20.948Z,74.92
2019-02-12T09:17:35.515Z,74.21
2019-02-12T09:20:29.961Z,74.21
2019-02-12T09:24:03.265Z,73.40
2019-02-12T09:27:14.253Z,72.82
2019-02-12T09:29:57.668Z,72.16
2019-02-12T09:33:07.928Z,71.93
2019-02-12T09:36:08.820Z,71.83
2019-02-12T09:39:20.169Z,72.05
2019-02-12T09:42:06.114Z,71.17
2019-02-12T09:45:06.406Z,70.31
2019-02-12T09:47:53.375Z,69.58
2019-02-12T09:51:05.065Z,69.14
2019-02-12T09:54:11.415Z,67.93
2019-02-12T09:57:01.001Z,67.75
2019-02-12T10:00:03.408Z,68.06
2019-02-12T10:03:15.978Z,65.99
2019-02-12T10:05:59.101Z,65.15
2019-02-12T10:09:06.414Z,66.40
2019-02-12T10:11:58.469Z,66.30
2019-02-12T10:15:00.438Z,65.66
2019-02-12T10:18:05.743Z,65.09
2019-02-12T10:21:26.981Z,64.19
2019-02-12T10:24:20.281Z,65.17
2019-02-12T10:27:18.885Z,66.44
2019-02-12T10:30:18.335Z,65.98
2019-02-12T10:32:58.096Z,65.59
2019-02-12T10:35:33.773Z,65.40
2019-02-12T10:38:07.777Z,66.40
2019-02-12T10:40:44.684Z,66.40
2019-02-12T10:43:11.871Z,66.29
2019-02-12T10:45:42.331Z,65.87
2019-02-12T10:48:15.029Z,65.64
2019-02-12T10:50:47.182Z,64.12
2019-02-12T10:53:27.518Z,63.81
2019-02-12T10:55:59.474Z,62.43
2019-02-12T10:58:31.529Z,62.12
2019-02-12T11:01:01.834Z,60.73
2019-02-12T11:03:33.730Z,60.05
2019-02-12T11:06:04.011Z,61.08
2019-02-12T11:08:34.595Z,61.03
2019-02-12T11:11:04.887Z,60.34
2019-02-12T11:13:35.705Z,59.94
2019-02-12T11:16:08.139Z,60.47
2019-02-12T11:18:43.428Z,60.97
2019-02-12T11:21:13.747Z,60.97
2019-02-12T11:23:44.338Z,60.28
2019-02-12T11:26:14.664Z,60.45
2019-02-12T11:29:06.938Z,60.21
2019-02-12T11:31:27.766Z,59.42
2019-02-12T11:33:58.261Z,59.28
2019-02-12T11:36:30.131Z,58.46
2019-02-12T11:39:03.519Z,58.85
2019-02-12T11:41:36.158Z,58.91
2019-02-12T11:44:08.330Z,58.20
2019-02-12T11:46:38.776Z,58.03
2019-02-12T11:49:09.109Z,57.42
2019-02-12T11:51:39.897Z,57.03
2019-02-12T11:54:10.248Z,58.10
2019-02-12T11:56:40.753Z,57.39
2019-02-12T11:59:11.353Z,56.76
2019-02-12T12:01:43.849Z,57.20
2019-02-12T12:04:18.123Z,57.38
2019-02-12T12:06:51.910Z,57.68
2019-02-12T12:09:22.229Z,56.51
2019-02-12T12:11:52.835Z,57.58
2019-02-12T12:14:23.193Z,56.94
2019-02-12T12:16:54.873Z,57.58
2019-02-12T12:19:47.947Z,56.95
2019-02-12T12:22:21.192Z,57.19
2019-02-12T12:25:10.614Z,57.22
2019-02-12T12:27:36.984Z,58.34
2019-02-12T12:30:08.549Z,57.29
2019-02-12T12:32:40.249Z,57.91
2019-02-12T12:35:10.980Z,57.91
2019-02-12T12:37:44.403Z,57.86
2019-02-12T12:40:14.729Z,57.58
2019-02-12T12:42:54.277Z,57.27
2019-02-12T12:45:24.579Z,56.71
2019-02-12T12:47:55.387Z,57.65
2019-02-12T12:50:27.415Z,57.33
2019-02-12T12:52:57.988Z,56.82
2019-02-12T12:55:28.435Z,57.01
2019-02-12T12:58:00.697Z,58.04
2019-02-12T13:00:31.285Z,58.28
2019-02-12T13:03:05.151Z,57.93
2019-02-12T13:05:39.313Z,58.20
2019-02-12T13:08:09.891Z,58.53
2019-02-12T13:10:40.467Z,58.53
2019-02-12T13:13:10.866Z,59.32
2019-02-12T13:15:42.615Z,59.19
2019-02-12T13:18:13.258Z,58.36
2019-02-12T13:20:43.614Z,58.88
2019-02-12T13:23:14.021Z,58.93
2019-02-12T13:25:44.451Z,59.03
2019-02-12T13:28:14.814Z,58.82
2019-02-12T13:30:45.148Z,59.05
2019-02-12T13:33:15.503Z,59.54
2019-02-12T13:35:47.775Z,58.85
2019-02-12T13:38:18.431Z,58.90
2019-02-12T13:40:48.729Z,58.31
2019-02-12T13:43:25.352Z,58.29
2019-02-12T13:45:58.294Z,58.77
2019-02-12T13:48:29.396Z,58.22
2019-02-12T13:51:00.430Z,58.42
2019-02-12T13:53:30.719Z,58.70
2019-02-12T13:56:02.405Z,58.21
2019-02-12T13:58:38.596Z,58.78
2019-02-12T14:01:08.862Z,59.27
2019-02-12T14:03:40.220Z,59.27
2019-02-12T14:06:10.676Z,59.84
2019-02-12T14:08:42.399Z,60.23
2019-02-12T14:11:13.040Z,60.84
2019-02-12T14:13:43.403Z,61.10
2019-02-12T14:16:15.611Z,61.39
2019-02-12T14:18:47.419Z,61.57
2019-02-12T14:21:17.727Z,61.87
2019-02-12T14:23:48.164Z,62.02
2019-02-12T14:26:33.810Z,62.61
2019-02-12T14:28:56.699Z,62.76
2019-02-12T14:31:27.179Z,62.12
2019-02-12T14:34:02.828Z,62.63
2019-02-12T14:36:35.064Z,62.63
2019-02-12T14:39:06.189Z,62.80
2019-02-12T14:41:37.337Z,62.68
2019-02-12T14:44:07.668Z,62.82
2019-02-12T14:46:38.138Z,62.80
2019-02-12T14:49:08.863Z,62.63
2019-02-12T14:51:39.243Z,63.20
2019-02-12T14:54:12.061Z,63.25
2019-02-12T14:56:42.868Z,63.17
2019-02-12T14:59:13.437Z,63.55
2019-02-12T15:01:45.630Z,63.58
2019-02-12T15:04:16.285Z,63.92
2019-02-12T15:07:01.877Z,63.84
2019-02-12T15:09:18.956Z,63.76
2019-02-12T15:11:53.219Z,63.45
2019-02-12T15:14:24.652Z,63.61
2019-02-12T15:16:56.334Z,63.84
2019-02-12T15:19:26.671Z,63.67
2019-02-12T15:21:58.486Z,63.40
2019-02-12T15:24:29.361Z,63.79
2019-02-12T15:26:59.711Z,63.79
2019-02-12T15:29:32.465Z,64.46
2019-02-12T15:32:05.767Z,64.81
2019-02-12T15:34:37.421Z,65.12
2019-02-12T15:37:07.764Z,65.38
2019-02-12T15:39:38.081Z,65.61
2019-02-12T15:42:08.440Z,66.17
2019-02-12T15:44:43.790Z,66.05
2019-02-12T15:47:11.055Z,66.24
2019-02-12T15:49:43.312Z,66.39
2019-02-12T15:52:15.641Z,66.57
2019-02-12T15:54:46.120Z,66.91
2019-02-12T15:57:17.638Z,67.00
2019-02-12T15:59:48.263Z,67.68
2019-02-12T16:02:23.825Z,67.68
2019-02-12T16:04:52.199Z,67.79
2019-02-12T16:07:24.252Z,68.00
2019-02-12T16:09:56.919Z,68.54
2019-02-12T16:12:29.877Z,68.91
2019-02-12T16:15:01.722Z,69.25
2019-02-12T16:17:39.298Z,69.40
2019-02-12T16:20:10.184Z,69.64
2019-02-12T16:22:40.813Z,69.87
2019-02-12T16:25:11.440Z,70.05
2019-02-12T16:27:44.714Z,70.43
2019-02-12T16:30:21.575Z,70.69
2019-02-12T16:32:56.140Z,71.26
2019-02-12T16:35:26.743Z,71.79
2019-02-12T16:37:57.257Z,72.01
2019-02-12T16:40:27.837Z,72.31
2019-02-12T16:42:58.166Z,72.68
2019-02-12T16:45:31.939Z,73.19
2019-02-12T16:48:02.446Z,73.63
2019-02-12T16:50:33.036Z,74.35
2019-02-12T16:53:03.641Z,74.62
2019-02-12T16:55:37.054Z,74.79
2019-02-12T16:58:07.738Z,75.10
2019-02-12T17:00:38.499Z,75.28
2019-02-12T17:03:10.528Z,75.56
2019-02-12T17:05:43.962Z,75.68
2019-02-12T17:08:14.481Z,75.94
2019-02-12T17:10:50.954Z,76.03
2019-02-12T17:13:21.030Z,76.00
2019-02-12T17:15:51.701Z,76.29
2019-02-12T17:18:23.351Z,76.29
2019-02-12T17:20:54.257Z,76.53
2019-02-12T17:23:24.751Z,76.53
2019-02-12T17:25:56.559Z,76.53
2019-02-12T17:28:28.559Z,76.52
2019-02-12T17:31:02.013Z,76.53
2019-02-12T17:33:33.993Z,76.54
2019-02-12T17:36:04.805Z,76.67
2019-02-12T17:38:37.086Z,77.00
2019-02-12T17:41:08.253Z,77.22
2019-02-12T17:43:38.854Z,77.73
2019-02-12T17:46:11.303Z,78.09
2019-02-12T17:48:42.673Z,78.09
2019-02-12T17:51:13.067Z,77.80
2019-02-12T17:53:47.577Z,77.75
2019-02-12T17:56:24.738Z,77.89
2019-02-12T17:58:53.250Z,78.15
2019-02-12T18:01:24.016Z,78.26
2019-02-12T18:03:54.750Z,78.37
2019-02-12T18:06:27.715Z,78.46
2019-02-12T18:08:58.379Z,78.39
2019-02-12T18:11:30.869Z,78.39
2019-02-12T18:14:03.182Z,78.87
2019-02-12T18:16:37.502Z,79.05
2019-02-12T18:19:08.662Z,79.44
2019-02-12T18:21:42.219Z,79.56
2019-02-12T18:24:12.710Z,79.78
2019-02-12T18:26:44.278Z,80.14
2019-02-12T18:29:14.756Z,80.22
2019-02-12T18:31:48.425Z,80.24
2019-02-12T18:34:18.998Z,80.45
2019-02-12T18:36:51.290Z,80.95
2019-02-12T18:39:21.904Z,80.95
2019-02-12T18:41:52.766Z,80.74
2019-02-12T18:44:27.678Z,80.87
2019-02-12T18:46:59.741Z,80.96
2019-02-12T18:49:30.096Z,81.05
2019-02-12T18:52:00.799Z,81.30
2019-02-12T18:54:31.484Z,81.27
2019-02-12T18:57:03.224Z,81.30
2019-02-12T18:59:33.602Z,81.39
2019-02-12T19:02:08.287Z,81.51
2019-02-12T19:04:39.818Z,81.70
2019-02-12T19:07:11.258Z,81.89
2019-02-12T19:09:41.593Z,82.00
2019-02-12T19:12:12.097Z,82.01
2019-02-12T19:14:45.000Z,82.14
2019-02-12T19:17:14.757Z,82.28
2019-02-12T19:19:45.158Z,82.31
2019-02-12T19:22:15.508Z,82.24
2019-02-12T19:24:45.830Z,82.10
2019-02-12T19:27:18.626Z,82.06
2019-02-12T19:29:49.352Z,82.04
2019-02-12T19:32:20.141Z,82.07
2019-02-12T19:34:50.515Z,82.10
2019-02-12T19:37:21.067Z,81.94
2019-02-12T19:39:51.625Z,81.90
2019-02-12T19:42:22.193Z,81.81
2019-02-12T19:44:59.324Z,81.69
2019-02-12T19:47:26.540Z,81.60
2019-02-12T19:49:58.155Z,81.48
2019-02-12T19:52:28.469Z,81.57
2019-02-12T19:55:04.501Z,81.31
2019-02-12T19:57:34.977Z,81.02
2019-02-12T20:00:09.890Z,80.77
2019-02-12T20:02:40.338Z,80.72
2019-02-12T20:05:11.381Z,80.58
2019-02-12T20:07:44.066Z,80.36
2019-02-12T20:10:18.795Z,80.18
2019-02-12T20:12:49.144Z,79.97
2019-02-12T20:15:29.920Z,79.89
2019-02-12T20:17:59.356Z,79.84
2019-02-12T20:20:29.676Z,79.78
2019-02-12T20:23:00.328Z,79.93
2019-02-12T20:25:32.128Z,79.84
2019-02-12T20:28:09.007Z,79.94
2019-02-12T20:30:45.334Z,80.12
2019-02-12T20:33:17.139Z,80.21
2019-02-12T20:35:47.629Z,80.32
2019-02-12T20:38:18.053Z,80.42
2019-02-12T20:40:52.047Z,80.38
2019-02-12T20:43:22.850Z,80.38
2019-02-12T20:45:53.535Z,80.38
2019-02-12T20:48:25.548Z,80.45
2019-02-12T20:50:56.198Z,80.48
2019-02-12T20:53:26.640Z,80.44
2019-02-12T20:55:57.958Z,80.41
2019-02-12T20:58:31.697Z,80.30
2019-02-12T21:01:04.304Z,80.20
2019-02-12T21:03:34.728Z,80.00
2019-02-12T21:06:05.438Z,79.78
2019-02-12T21:08:36.120Z,79.71
2019-02-12T21:11:06.615Z,79.70
2019-02-12T21:13:37.431Z,79.76
2019-02-12T21:16:08.453Z,79.66
2019-02-12T21:18:39.225Z,79.49
2019-02-12T21:21:12.700Z,79.34
2019-02-12T21:23:43.534Z,79.08
2019-02-12T21:26:19.829Z,79.01
2019-02-12T21:28:50.279Z,79.08
2019-02-12T21:31:20.789Z,78.89
2019-02-12T21:33:51.876Z,78.65
2019-02-12T21:36:22.236Z,78.62
2019-02-12T21:38:58.633Z,78.67
2019-02-12T21:41:32.129Z,78.32
2019-02-12T21:44:04.757Z,78.05
2019-02-12T21:46:36.941Z,77.92
2019-02-12T21:49:07.526Z,77.83
2019-02-12T21:51:38.196Z,77.67
2019-02-12T21:54:08.644Z,77.57
2019-02-12T21:56:40.265Z,77.50
2019-02-12T21:59:13.026Z,77.25
2019-02-12T22:01:44.744Z,76.40
2019-02-12T22:04:15.184Z,75.88
2019-02-12T22:06:45.522Z,75.49
2019-02-12T22:09:17.213Z,75.25
2019-02-12T22:11:47.733Z,74.78
2019-02-12T22:14:18.084Z,74.10
2019-02-12T22:16:48.543Z,74.12
2019-02-12T22:19:19.221Z,74.10
2019-02-12T22:21:51.165Z,74.05
2019-02-12T22:24:24.924Z,74.30
2019-02-12T22:26:56.896Z,74.19
2019-02-12T22:29:27.547Z,75.28
2019-02-12T22:32:00.482Z,75.28
2019-02-12T22:34:30.461Z,75.25
2019-02-12T22:37:03.015Z,75.51
2019-02-12T22:39:33.348Z,75.64
2019-02-12T22:42:03.962Z,75.63
2019-02-12T22:44:35.933Z,75.40
2019-02-12T22:47:07.306Z,75.40
2019-02-12T22:49:40.523Z,75.59
2019-02-12T22:52:10.969Z,75.88
2019-02-12T22:54:41.356Z,76.30
2019-02-12T22:57:11.676Z,76.74
2019-02-12T22:59:42.191Z,77.23
2019-02-12T23:02:12.902Z,77.48
2019-02-12T23:04:44.885Z,77.58
2019-02-12T23:07:20.871Z,77.50
2019-02-12T23:09:53.019Z,77.37
2019-02-12T23:12:24.123Z,77.30
2019-02-12T23:14:54.416Z,77.35
2019-02-12T23:17:24.710Z,77.41
2019-02-12T23:19:58.640Z,77.68
2019-02-12T23:22:30.829Z,77.87
2019-02-12T23:25:01.325Z,77.98
2019-02-12T23:27:31.837Z,77.85
2019-02-12T23:30:02.547Z,77.79
2019-02-12T23:32:34.589Z,77.70
2019-02-12T23:35:07.064Z,77.66
2019-02-12T23:37:37.708Z,77.55
2019-02-12T23:40:08.592Z,77.30
2019-02-12T23:42:38.972Z,77.12
2019-02-12T23:45:09.632Z,77.01
2019-02-12T23:47:41.638Z,76.92
2019-02-12T23:50:12.351Z,76.91
2019-02-12T23:52:42.754Z,77.06
2019-02-12T23:55:15.976Z,77.00
2019-02-12T23:57:47.756Z,76.89
